Time;durP1;ratioP1;P1;durP2;ratioP2;P2;SDS_P1;SDS_P2;PMS_P1;PMS_P2;Temp;Humidity;BMP_temperature;BMP_pressure;BME280_temperature;BME280_humidity;BME280_pressure;Samples;Min_cycle;Max_cycle;Signal;HPM_P1;HPM_P2
2021/07/06 00:02:14;;;;;;;;;;;;;;;;;;5050730;28;997;-54
2021/07/06 00:04:39;;;;;;;;;;;;;;;;;;5050045;28;1601;-54
2021/07/06 00:07:04;;;;;;;;;;;;;;;;;;5049639;28;1609;-53
2021/07/06 00:09:29;;;;;;;;;;;;;;;;;;5051200;28;1239;-54
2021/07/06 00:11:54;;;;;;;;;;;;;;;;;;5050851;28;1188;-54
2021/07/06 00:14:20;;;;;;;;;;;;;;;;;;5050728;28;1382;-53
2021/07/06 00:16:45;;;;;;;;;;;;;;;;;;5050235;28;1902;-53
2021/07/06 00:19:10;;;;;;;;;;;;;;;;;;5048966;28;1577;-53
2021/07/06 00:21:35;;;;;;;;;;;;;;;;;;5049993;28;1172;-53
2021/07/06 00:24:00;;;;;;;;;;;;;;;;;;5050677;28;1132;-53
2021/07/06 00:26:25;;;;;;;;;;;;;;;;;;5049378;28;1640;-54
2021/07/06 00:28:51;;;;;;;;;;;;;;;;;;5050755;28;1180;-53
2021/07/06 00:31:16;;;;;;;;;;;;;;;;;;5050434;28;1049;-54
2021/07/06 00:33:41;;;;;;;;;;;;;;;;;;5049747;28;2025;-55
2021/07/06 00:36:06;;;;;;;;;;;;;;;;;;5050146;28;1397;-54
2021/07/06 00:38:31;;;;;;;;;;;;;;;;;;5050490;28;1969;-54
2021/07/06 00:40:57;;;;;;;;;;;;;;;;;;5049972;28;1215;-54
2021/07/06 00:43:22;;;;;;;;;;;;;;;;;;5048727;28;1562;-53
2021/07/06 00:45:48;;;;;;;;;;;;;;;;;;5050451;28;1288;-54
2021/07/06 00:48:13;;;;;;;;;;;;;;;;;;5048296;28;1617;-53
2021/07/06 00:50:38;;;;;;;;;;;;;;;;;;5050039;28;1302;-53
2021/07/06 00:53:03;;;;;;;;;;;;;;;;;;5050080;28;1184;-54
2021/07/06 00:55:29;;;;;;;;;;;;;;;;;;5050105;28;1516;-53
2021/07/06 00:57:54;;;;;;;;;;;;;;;;;;5029650;28;1910;-53
2021/07/06 01:00:20;;;;;;;;;;;;;;;;;;5044671;28;1349;-53
2021/07/06 01:02:46;;;;;;;;;;;;;;;;;;5045458;28;1670;-54
2021/07/06 01:05:12;;;;;;;;;;;;;;;;;;5072886;22;1842;-91
2021/07/06 01:07:37;;;;;;;;;;;;;;;;;;5029322;28;1651;-91
2021/07/06 01:10:03;;;;;;;;;;;;;;;;;;5031735;28;1176;-92
2021/07/06 01:12:31;;;;;;;;;;;;;;;;;;5030637;28;1574;-92
2021/07/06 01:14:56;;;;;;;;;;;;;;;;;;5029988;28;1606;-91
2021/07/06 01:17:28;;;;;;;;;;;;;;;;;;5048883;28;1981;-91
2021/07/06 01:19:53;;;;;;;;;;;;;;;;;;5046949;28;1618;-91
2021/07/06 01:22:26;;;;;;;;;;;;;;;;;;5047949;28;1203;-91
2021/07/06 01:24:51;;;;;;;;;;;;;;;;;;5047662;28;1165;-91
2021/07/06 01:27:16;;;;;;;;;;;;;;;;;;5048272;28;1619;-91
2021/07/06 01:29:41;;;;;;;;;;;;;;;;;;5032000;28;1244;-91
2021/07/06 01:32:06;;;;;;;;;;;;;;;;;;5049212;28;1033;-91
2021/07/06 01:34:32;;;;;;;;;;;;;;;;;;5048146;28;1647;-91
2021/07/06 01:36:57;;;;;;;;;;;;;;;;;;5031281;28;2258;-91
2021/07/06 01:39:22;;;;;;;;;;;;;;;;;;5049149;28;1117;-91
2021/07/06 01:41:47;;;;;;;;;;;;;;;;;;5049148;28;1603;-91
2021/07/06 01:44:22;;;;;;;;;;;;;;;;;;5048261;28;1318;-91
2021/07/06 01:46:48;;;;;;;;;;;;;;;;;;5049583;28;1278;-91
2021/07/06 01:49:13;;;;;;;;;;;;;;;;;;5058945;28;1599;-91
2021/07/06 01:51:39;;;;;;;;;;;;;;;;;;5074718;28;1220;-91
2021/07/06 01:54:04;;;;;;;;;;;;;;;;;;5059432;28;1052;-91
2021/07/06 01:56:29;;;;;;;;;;;;;;;;;;5048905;28;1910;-91
2021/07/06 01:58:55;;;;;;;;;;;;;;;;;;5030813;28;1213;-91
2021/07/06 02:01:20;;;;;;;;;;;;;;;;;;5031611;28;1495;-91
2021/07/06 02:03:49;;;;;;;;;;;;;;;;;;5048324;28;1566;-91
2021/07/06 02:06:14;;;;;;;;;;;;;;;;;;5031037;28;1650;-91
2021/07/06 02:08:40;;;;;;;;;;;;;;;;;;5047796;28;1384;-91
2021/07/06 02:11:06;;;;;;;;;;;;;;;;;;5048986;28;1164;-92
2021/07/06 02:13:31;;;;;;;;;;;;;;;;;;5047623;28;1722;-92
2021/07/06 02:15:56;;;;;;;;;;;;;;;;;;5044864;28;1382;-92
2021/07/06 02:18:22;;;;;;;;;;;;;;;;;;5030496;28;2033;-92
2021/07/06 02:20:48;;;;;;;;;;;;;;;;;;5046699;28;1223;-92
2021/07/06 02:23:13;;;;;;;;;;;;;;;;;;5047545;28;1165;-92
2021/07/06 02:25:39;;;;;;;;;;;;;;;;;;5031561;28;1363;-92
2021/07/06 02:28:04;;;;;;;;;;;;;;;;;;5030120;28;1781;-92
2021/07/06 02:30:29;;;;;;;;;;;;;;;;;;5048866;28;1100;-92
2021/07/06 02:32:54;;;;;;;;;;;;;;;;;;5046016;28;1631;-92
2021/07/06 02:35:20;;;;;;;;;;;;;;;;;;5049179;28;1219;-92
2021/07/06 02:37:45;;;;;;;;;;;;;;;;;;5049148;28;1973;-92
2021/07/06 02:40:11;;;;;;;;;;;;;;;;;;5048235;28;1069;-92
2021/07/06 02:42:36;;;;;;;;;;;;;;;;;;5030948;28;1607;-91
2021/07/06 02:45:01;;;;;;;;;;;;;;;;;;5049561;28;1354;-91
2021/07/06 02:47:26;;;;;;;;;;;;;;;;;;5052884;28;1259;-91
2021/07/06 02:49:51;;;;;;;;;;;;;;;;;;5051686;28;1563;-91
2021/07/06 02:52:17;;;;;;;;;;;;;;;;;;5034201;28;1255;-91
2021/07/06 02:54:42;;;;;;;;;;;;;;;;;;5034230;28;1177;-91
2021/07/06 02:57:09;;;;;;;;;;;;;;;;;;5033249;28;1977;-91
2021/07/06 02:59:35;;;;;;;;;;;;;;;;;;5050031;28;1026;-91
2021/07/06 03:02:00;;;;;;;;;;;;;;;;;;5033436;28;1271;-91
2021/07/06 03:04:25;;;;;;;;;;;;;;;;;;5051454;28;1611;-91
2021/07/06 03:06:53;;;;;;;;;;;;;;;;;;5050113;28;1591;-92
2021/07/06 03:09:18;;;;;;;;;;;;;;;;;;5051366;28;1188;-91
2021/07/06 03:11:45;;;;;;;;;;;;;;;;;;5034739;28;1299;-91
2021/07/06 03:14:10;;;;;;;;;;;;;;;;;;5051125;28;1564;-91
2021/07/06 03:16:35;;;;;;;;;;;;;;;;;;5050924;28;1914;-91
2021/07/06 03:19:00;;;;;;;;;;;;;;;;;;5051068;28;1576;-91
2021/07/06 03:21:25;;;;;;;;;;;;;;;;;;5050892;28;1168;-91
2021/07/06 03:23:50;;;;;;;;;;;;;;;;;;5052117;28;1184;-91
2021/07/06 03:26:16;;;;;;;;;;;;;;;;;;5051567;28;1289;-91
2021/07/06 03:28:41;;;;;;;;;;;;;;;;;;5050126;28;1607;-91
2021/07/06 03:31:06;;;;;;;;;;;;;;;;;;5048451;28;1576;-91
2021/07/06 03:33:32;;;;;;;;;;;;;;;;;;5048431;28;1673;-91
2021/07/06 03:35:57;;;;;;;;;;;;;;;;;;5051783;28;1325;-91
2021/07/06 03:38:22;;;;;;;;;;;;;;;;;;5050758;28;1902;-91
2021/07/06 03:40:47;;;;;;;;;;;;;;;;;;5049648;28;1543;-91
2021/07/06 03:43:12;;;;;;;;;;;;;;;;;;5051132;28;1085;-91
2021/07/06 03:45:37;;;;;;;;;;;;;;;;;;5050201;28;1310;-91
2021/07/06 03:48:03;;;;;;;;;;;;;;;;;;5050846;28;1630;-91
2021/07/06 03:50:28;;;;;;;;;;;;;;;;;;5050697;28;1157;-91
2021/07/06 03:52:54;;;;;;;;;;;;;;;;;;5033405;28;1304;-91
2021/07/06 03:55:19;;;;;;;;;;;;;;;;;;5051236;28;1400;-91
2021/07/06 03:57:44;;;;;;;;;;;;;;;;;;5050577;28;1961;-91
2021/07/06 04:00:11;;;;;;;;;;;;;;;;;;5047739;28;1173;-90
2021/07/06 04:02:36;;;;;;;;;;;;;;;;;;5049352;28;1256;-91
2021/07/06 04:05:02;;;;;;;;;;;;;;;;;;5049711;28;1607;-91
2021/07/06 04:07:27;;;;;;;;;;;;;;;;;;5049491;28;1555;-90
2021/07/06 04:09:52;;;;;;;;;;;;;;;;;;5050608;28;1198;-91
2021/07/06 04:12:18;;;;;;;;;;;;;;;;;;5049887;28;1144;-91
2021/07/06 04:14:43;;;;;;;;;;;;;;;;;;5030975;28;1535;-90
2021/07/06 04:17:09;;;;;;;;;;;;;;;;;;5050732;28;1968;-91
2021/07/06 04:19:34;;;;;;;;;;;;;;;;;;5050140;28;1575;-90
2021/07/06 04:21:59;;;;;;;;;;;;;;;;;;5049704;28;1287;-90
2021/07/06 04:24:24;;;;;;;;;;;;;;;;;;5050075;28;1140;-91
2021/07/06 04:26:49;;;;;;;;;;;;;;;;;;5048906;28;1564;-91
2021/07/06 04:29:14;;;;;;;;;;;;;;;;;;5050605;28;1073;-91
2021/07/06 04:31:40;;;;;;;;;;;;;;;;;;5049579;28;1206;-91
2021/07/06 04:34:05;;;;;;;;;;;;;;;;;;5031897;28;1721;-91
2021/07/06 04:36:30;;;;;;;;;;;;;;;;;;5049468;28;1906;-91
2021/07/06 04:38:56;;;;;;;;;;;;;;;;;;5045554;28;1633;-91
2021/07/06 04:41:21;;;;;;;;;;;;;;;;;;5045436;28;1116;-91
2021/07/06 04:43:46;;;;;;;;;;;;;;;;;;5044065;28;1967;-90
2021/07/06 04:46:11;;;;;;;;;;;;;;;;;;5049440;28;1279;-90
2021/07/06 04:48:36;;;;;;;;;;;;;;;;;;5047428;28;1565;-91
2021/07/06 04:51:09;;;;;;;;;;;;;;;;;;5050339;28;1113;-90
2021/07/06 04:53:36;;;;;;;;;;;;;;;;;;5048991;28;978;-90
2021/07/06 04:56:01;;;;;;;;;;;;;;;;;;5050082;28;1431;-91
2021/07/06 04:58:27;;;;;;;;;;;;;;;;;;5049752;28;1968;-91
2021/07/06 05:00:52;;;;;;;;;;;;;;;;;;5050016;28;1444;-90
2021/07/06 05:03:17;;;;;;;;;;;;;;;;;;5031456;28;1544;-90
2021/07/06 05:05:43;;;;;;;;;;;;;;;;;;5046692;28;1665;-90
2021/07/06 05:08:11;;;;;;;;;;;;;;;;;;5047016;28;1257;-90
2021/07/06 05:10:36;;;;;;;;;;;;;;;;;;5047008;28;1212;-91
2021/07/06 05:13:01;;;;;;;;;;;;;;;;;;5044954;28;1520;-91
2021/07/06 05:15:27;;;;;;;;;;;;;;;;;;5047809;28;1284;-90
2021/07/06 05:17:52;;;;;;;;;;;;;;;;;;5049862;28;1910;-90
2021/07/06 05:20:17;;;;;;;;;;;;;;;;;;5048721;28;1340;-91
2021/07/06 05:22:42;;;;;;;;;;;;;;;;;;5015803;28;1377;-91
2021/07/06 05:25:08;;;;;;;;;;;;;;;;;;5045710;28;1283;-92
2021/07/06 05:27:33;;;;;;;;;;;;;;;;;;5092698;22;3832;-54
2021/07/06 05:29:58;;;;;;;;;;;;;;;;;;5090043;28;1163;-53
2021/07/06 05:32:23;;;;;;;;;;;;;;;;;;5084435;28;1612;-53
2021/07/06 05:34:49;;;;;;;;;;;;;;;;;;5079929;28;3536;-56
2021/07/06 05:37:14;;;;;;;;;;;;;;;;;;5064884;28;2043;-52
2021/07/06 05:39:40;;;;;;;;;;;;;;;;;;5063579;28;2056;-52
2021/07/06 05:42:05;;;;;;;;;;;;;;;;;;5062647;28;2911;-53
2021/07/06 05:44:30;;;;;;;;;;;;;;;;;;5065377;28;2001;-52
2021/07/06 05:46:55;;;;;;;;;;;;;;;;;;5055078;28;2189;-56
2021/07/06 05:49:21;;;;;;;;;;;;;;;;;;5061639;28;2240;-56
2021/07/06 05:51:46;;;;;;;;;;;;;;;;;;5063496;28;1941;-53
2021/07/06 05:54:11;;;;;;;;;;;;;;;;;;5064646;28;2039;-54
2021/07/06 05:56:36;;;;;;;;;;;;;;;;;;5062541;28;1963;-52
2021/07/06 05:59:01;;;;;;;;;;;;;;;;;;5064980;28;1947;-55
2021/07/06 06:01:30;;;;;;;;;;;;;;;;;;5063034;28;1916;-52
2021/07/06 06:03:55;;;;;;;;;;;;;;;;;;5064563;28;1911;-55
2021/07/06 06:06:20;;;;;;;;;;;;;;;;;;5062134;28;2473;-60
2021/07/06 06:08:45;;;;;;;;;;;;;;;;;;5063811;28;2279;-59
2021/07/06 06:11:11;;;;;;;;;;;;;;;;;;5062940;28;3782;-59
2021/07/06 06:13:36;;;;;;;;;;;;;;;;;;5064730;28;2001;-57
2021/07/06 06:16:01;;;;;;;;;;;;;;;;;;5063502;28;2207;-56
2021/07/06 06:18:26;;;;;;;;;;;;;;;;;;5063157;28;2480;-55
2021/07/06 06:20:52;;;;;;;;;;;;;;;;;;5066538;28;2061;-54
2021/07/06 06:23:17;;;;;;;;;;;;;;;;;;5066067;28;1880;-53
2021/07/06 06:25:42;;;;;;;;;;;;;;;;;;5067635;28;1920;-53
2021/07/06 06:28:07;;;;;;;;;;;;;;;;;;5066888;28;1889;-55
2021/07/06 06:30:33;;;;;;;;;;;;;;;;;;5065721;28;1887;-54
2021/07/06 06:32:58;;;;;;;;;;;;;;;;;;5065451;28;1968;-55
2021/07/06 06:35:24;;;;;;;;;;;;;;;;;;5066150;28;2384;-55
2021/07/06 06:37:49;;;;;;;;;;;;;;;;;;5066701;28;2025;-54
2021/07/06 06:40:14;;;;;;;;;;;;;;;;;;5065982;28;2061;-55
2021/07/06 06:42:39;;;;;;;;;;;;;;;;;;5064106;28;2157;-54
2021/07/06 06:45:05;;;;;;;;;;;;;;;;;;5062236;28;2563;-55
2021/07/06 06:47:30;;;;;;;;;;;;;;;;;;5067907;28;1897;-55
2021/07/06 06:49:55;;;;;;;;;;;;;;;;;;5064727;28;3694;-54
2021/07/06 06:52:22;;;;;;;;;;;;;;;;;;5066575;28;1954;-54
2021/07/06 06:54:47;;;;;;;;;;;;;;;;;;5065353;28;1855;-55
2021/07/06 06:57:12;;;;;;;;;;;;;;;;;;5065247;28;1922;-55
2021/07/06 06:59:37;;;;;;;;;;;;;;;;;;5063960;28;1903;-55
2021/07/06 07:02:19;;;;;;;;;;;;;;;;;;5064070;28;2552;-54
2021/07/06 07:04:44;;;;;;;;;;;;;;;;;;5065371;28;2056;-54
2021/07/06 07:07:10;;;;;;;;;;;;;;;;;;5074166;22;1920;-55
2021/07/06 07:09:35;;;;;;;;;;;;;;;;;;5079461;28;1178;-55
2021/07/06 07:12:00;;;;;;;;;;;;;;;;;;5080518;28;1641;-55
2021/07/06 07:14:26;;;;;;;;;;;;;;;;;;5080790;28;1624;-55
2021/07/06 07:16:51;;;;;;;;;;;;;;;;;;5080093;28;1914;-54
2021/07/06 07:19:16;;;;;;;;;;;;;;;;;;5061776;28;2094;-54
2021/07/06 07:21:41;;;;;;;;;;;;;;;;;;5063601;28;1168;-55
2021/07/06 07:24:06;;;;;;;;;;;;;;;;;;5062160;28;1809;-56
2021/07/06 07:26:32;;;;;;;;;;;;;;;;;;5061536;28;1506;-54
2021/07/06 07:28:57;;;;;;;;;;;;;;;;;;5060239;28;1458;-55
2021/07/06 07:31:22;;;;;;;;;;;;;;;;;;5060865;28;1030;-55
2021/07/06 07:33:47;;;;;;;;;;;;;;;;;;5059288;28;1590;-55
2021/07/06 07:36:13;;;;;;;;;;;;;;;;;;5060380;28;1467;-55
2021/07/06 07:38:38;;;;;;;;;;;;;;;;;;5062439;28;1907;-55
2021/07/06 07:41:03;;;;;;;;;;;;;;;;;;5060011;28;1301;-54
2021/07/06 07:43:28;;;;;;;;;;;;;;;;;;5065642;28;1566;-54
2021/07/06 07:45:53;;;;;;;;;;;;;;;;;;5063884;28;1184;-55
2021/07/06 07:48:19;;;;;;;;;;;;;;;;;;5060567;28;1598;-54
2021/07/06 07:50:44;;;;;;;;;;;;;;;;;;5062226;28;1128;-54
2021/07/06 07:53:09;;;;;;;;;;;;;;;;;;5064969;28;1498;-55
2021/07/06 07:55:34;;;;;;;;;;;;;;;;;;5064579;28;1231;-54
2021/07/06 07:57:59;;;;;;;;;;;;;;;;;;5060197;28;1897;-55
2021/07/06 08:00:24;;;;;;;;;;;;;;;;;;5064051;28;1375;-55
2021/07/06 08:02:50;;;;;;;;;;;;;;;;;;5065552;28;1089;-56
2021/07/06 08:05:15;;;;;;;;;;;;;;;;;;5061500;28;1773;-55
2021/07/06 08:07:41;;;;;;;;;;;;;;;;;;5062674;28;1938;-54
2021/07/06 08:10:07;;;;;;;;;;;;;;;;;;5061227;28;1168;-56
2021/07/06 08:12:32;;;;;;;;;;;;;;;;;;5062701;28;1239;-54
2021/07/06 08:14:58;;;;;;;;;;;;;;;;;;5063775;28;1609;-54
2021/07/06 08:17:23;;;;;;;;;;;;;;;;;;5062071;28;1914;-54
2021/07/06 08:19:50;;;;;;;;;;;;;;;;;;5062942;28;1567;-55
2021/07/06 08:22:15;;;;;;;;;;;;;;;;;;5062341;28;1266;-55
2021/07/06 08:24:40;;;;;;;;;;;;;;;;;;5061883;28;1280;-55
2021/07/06 08:27:05;;;;;;;;;;;;;;;;;;5060375;28;1594;-55
2021/07/06 08:29:31;;;;;;;;;;;;;;;;;;5062842;28;1332;-56
2021/07/06 08:31:57;;;;;;;;;;;;;;;;;;5062281;28;1168;-55
2021/07/06 08:34:22;;;;;;;;;;;;;;;;;;5063341;28;1632;-55
2021/07/06 08:36:47;;;;;;;;;;;;;;;;;;5061614;28;1953;-55
2021/07/06 08:39:12;;;;;;;;;;;;;;;;;;5062863;28;1479;-55
2021/07/06 08:41:39;;;;;;;;;;;;;;;;;;5060662;28;1231;-55
2021/07/06 08:44:04;;;;;;;;;;;;;;;;;;5059776;28;1554;-55
2021/07/06 08:46:29;;;;;;;;;;;;;;;;;;5061420;28;1345;-56
2021/07/06 08:48:55;;;;;;;;;;;;;;;;;;5060216;28;1646;-55
2021/07/06 08:51:20;;;;;;;;;;;;;;;;;;5044727;28;1535;-56
2021/07/06 08:53:46;;;;;;;;;;;;;;;;;;5065233;28;1168;-56
2021/07/06 08:56:11;;;;;;;;;;;;;;;;;;5058913;28;1566;-55
2021/07/06 08:58:36;;;;;;;;;;;;;;;;;;5062665;28;1971;-56
2021/07/06 09:01:01;;;;;;;;;;;;;;;;;;5059418;28;1501;-56
2021/07/06 09:03:27;;;;;;;;;;;;;;;;;;5061039;28;1744;-55
2021/07/06 09:06:03;;;;;;;;;;;;;;;;;;5044954;28;1619;-54
2021/07/06 09:08:29;;;;;;;;;;;;;;;;;;5061885;28;1392;-55
2021/07/06 09:10:54;;;;;;;;;;;;;;;;;;5061233;28;1181;-55
2021/07/06 09:13:24;;;;;;;;;;;;;;;;;;5059004;28;1513;-55
2021/07/06 09:15:53;;;;;;;;;;;;;;;;;;5061081;28;1434;-55
2021/07/06 09:18:20;;;;;;;;;;;;;;;;;;5059774;28;2007;-56
2021/07/06 09:21:04;;;;;;;;;;;;;;;;;;5058817;28;1459;-56
2021/07/06 09:23:29;;;;;;;;;;;;;;;;;;5061892;28;1165;-55
2021/07/06 09:26:04;;;;;;;;;;;;;;;;;;5059606;28;1153;-55
2021/07/06 09:28:31;;;;;;;;;;;;;;;;;;5057970;28;1591;-55
2021/07/06 09:30:59;;;;;;;;;;;;;;;;;;5061216;28;1962;-55
2021/07/06 09:33:27;;;;;;;;;;;;;;;;;;5061267;28;1701;-55
2021/07/06 09:35:53;;;;;;;;;;;;;;;;;;5058833;28;1081;-55
2021/07/06 09:38:18;;;;;;;;;;;;;;;;;;5060144;28;1906;-55
2021/07/06 09:40:43;;;;;;;;;;;;;;;;;;5061122;28;1661;-56
2021/07/06 09:43:12;;;;;;;;;;;;;;;;;;5061724;28;1352;-55
2021/07/06 09:45:37;;;;;;;;;;;;;;;;;;5062184;28;1181;-54
2021/07/06 09:48:06;;;;;;;;;;;;;;;;;;5041408;28;1614;-55
2021/07/06 09:50:31;;;;;;;;;;;;;;;;;;5059108;28;1406;-56
2021/07/06 09:52:56;;;;;;;;;;;;;;;;;;5062201;28;1185;-56
2021/07/06 09:55:27;;;;;;;;;;;;;;;;;;5065578;28;1101;-55
2021/07/06 09:57:52;;;;;;;;;;;;;;;;;;5063445;28;1965;-56
2021/07/06 10:00:18;;;;;;;;;;;;;;;;;;5066658;28;1745;-56
2021/07/06 10:02:44;;;;;;;;;;;;;;;;;;5064269;28;1183;-54
2021/07/06 10:05:11;;;;;;;;;;;;;;;;;;5062726;28;1847;-54
2021/07/06 10:07:38;;;;;;;;;;;;;;;;;;5064269;28;1528;-54
2021/07/06 10:10:09;;;;;;;;;;;;;;;;;;5063917;28;1164;-56
2021/07/06 10:12:35;;;;;;;;;;;;;;;;;;5064789;28;1547;-55
2021/07/06 10:15:00;;;;;;;;;;;;;;;;;;5063709;28;1646;-55
2021/07/06 10:17:25;;;;;;;;;;;;;;;;;;5048831;28;1977;-55
2021/07/06 10:19:51;;;;;;;;;;;;;;;;;;5046011;28;1592;-54
2021/07/06 10:22:16;;;;;;;;;;;;;;;;;;5049297;28;1369;-55
2021/07/06 10:24:42;;;;;;;;;;;;;;;;;;5063152;28;1176;-54
2021/07/06 10:27:08;;;;;;;;;;;;;;;;;;5047082;28;1441;-54
2021/07/06 10:29:36;;;;;;;;;;;;;;;;;;5048133;28;2104;-55
2021/07/06 10:32:01;;;;;;;;;;;;;;;;;;5061953;28;1363;-55
2021/07/06 10:34:28;;;;;;;;;;;;;;;;;;5061383;28;1658;-55
2021/07/06 10:36:54;;;;;;;;;;;;;;;;;;5061380;28;1914;-54
2021/07/06 10:39:39;;;;;;;;;;;;;;;;;;5066421;28;1228;-55
2021/07/06 10:42:06;;;;;;;;;;;;;;;;;;5060939;28;1661;-55
2021/07/06 10:44:32;;;;;;;;;;;;;;;;;;5065289;28;1160;-54
2021/07/06 10:46:57;;;;;;;;;;;;;;;;;;5062702;28;1532;-55
2021/07/06 10:49:25;;;;;;;;;;;;;;;;;;5065087;28;1606;-55
2021/07/06 10:51:50;;;;;;;;;;;;;;;;;;5062265;28;1340;-55
2021/07/06 10:54:19;;;;;;;;;;;;;;;;;;5064410;28;1002;-55
2021/07/06 10:56:46;;;;;;;;;;;;;;;;;;5061131;28;1902;-55
2021/07/06 10:59:22;;;;;;;;;;;;;;;;;;5064142;28;1606;-55
2021/07/06 11:01:48;;;;;;;;;;;;;;;;;;5062226;28;1340;-55
2021/07/06 11:04:14;;;;;;;;;;;;;;;;;;5065944;28;1667;-56
2021/07/06 11:06:45;;;;;;;;;;;;;;;;;;5043601;28;1978;-55
2021/07/06 11:09:32;;;;;;;;;;;;;;;;;;5066572;28;1700;-56
2021/07/06 11:12:16;;;;;;;;;;;;;;;;;;5027200;28;1344;-55
2021/07/06 11:14:48;;;;;;;;;;;;;;;;;;5064223;28;1141;-55
2021/07/06 11:17:13;;;;;;;;;;;;;;;;;;5060370;28;1973;-55
2021/07/06 11:19:39;;;;;;;;;;;;;;;;;;5063181;28;1558;-54
2021/07/06 11:22:07;;;;;;;;;;;;;;;;;;5062689;28;1117;-55
2021/07/06 11:24:37;;;;;;;;;;;;;;;;;;5062802;28;1200;-55
2021/07/06 11:27:02;;;;;;;;;;;;;;;;;;5063605;28;1604;-55
2021/07/06 11:29:28;;;;;;;;;;;;;;;;;;5064568;28;1192;-55
2021/07/06 11:32:12;;;;;;;;;;;;;;;;;;5045174;28;1381;-55
2021/07/06 11:34:37;;;;;;;;;;;;;;;;;;5060106;28;1731;-55
2021/07/06 11:37:10;;;;;;;;;;;;;;;;;;5046759;28;1898;-56
2021/07/06 11:39:36;;;;;;;;;;;;;;;;;;5062517;28;1165;-55
2021/07/06 11:42:02;;;;;;;;;;;;;;;;;;5060895;28;1561;-55
2021/07/06 11:44:27;;;;;;;;;;;;;;;;;;5063282;28;1132;-56
2021/07/06 11:47:05;;;;;;;;;;;;;;;;;;5062572;28;1687;-56
2021/07/06 11:49:30;;;;;;;;;;;;;;;;;;5059206;28;1650;-55
2021/07/06 11:51:55;;;;;;;;;;;;;;;;;;5040591;28;1554;-56
2021/07/06 11:54:21;;;;;;;;;;;;;;;;;;5046414;28;2038;-55
2021/07/06 11:56:46;;;;;;;;;;;;;;;;;;5042620;28;1910;-56
2021/07/06 11:59:11;;;;;;;;;;;;;;;;;;5048685;28;1439;-55
2021/07/06 12:01:36;;;;;;;;;;;;;;;;;;5058810;28;1610;-55
2021/07/06 12:04:01;;;;;;;;;;;;;;;;;;5062103;28;1606;-55
2021/07/06 12:06:31;;;;;;;;;;;;;;;;;;5061864;28;1491;-55
2021/07/06 12:09:00;;;;;;;;;;;;;;;;;;5062311;28;1295;-55
2021/07/06 12:11:26;;;;;;;;;;;;;;;;;;5061915;28;1605;-54
2021/07/06 12:13:52;;;;;;;;;;;;;;;;;;5063296;28;1101;-55
2021/07/06 12:16:17;;;;;;;;;;;;;;;;;;5060053;28;1579;-54
2021/07/06 12:18:48;;;;;;;;;;;;;;;;;;5055859;28;1914;-55
2021/07/06 12:21:19;;;;;;;;;;;;;;;;;;5062444;28;1664;-56
2021/07/06 12:23:45;;;;;;;;;;;;;;;;;;5062620;28;1105;-55
2021/07/06 12:26:10;;;;;;;;;;;;;;;;;;5060304;28;1347;-56
2021/07/06 12:28:35;;;;;;;;;;;;;;;;;;5045626;28;1596;-55
2021/07/06 12:31:19;;;;;;;;;;;;;;;;;;4983819;28;1473;-55
2021/07/06 12:33:44;;;;;;;;;;;;;;;;;;5062468;28;1628;-55
2021/07/06 12:36:10;;;;;;;;;;;;;;;;;;5061018;28;1344;-55
2021/07/06 12:38:35;;;;;;;;;;;;;;;;;;5063242;28;1910;-56
2021/07/06 12:41:00;;;;;;;;;;;;;;;;;;5060207;28;1215;-55
2021/07/06 12:43:25;;;;;;;;;;;;;;;;;;5042388;28;1719;-55
2021/07/06 12:45:50;;;;;;;;;;;;;;;;;;5061677;28;1231;-56
2021/07/06 12:48:25;;;;;;;;;;;;;;;;;;5057966;28;1603;-55
2021/07/06 12:50:51;;;;;;;;;;;;;;;;;;5059517;28;1394;-54
2021/07/06 12:53:17;;;;;;;;;;;;;;;;;;5063549;28;1035;-55
2021/07/06 12:55:42;;;;;;;;;;;;;;;;;;5041861;28;1526;-55
2021/07/06 12:58:08;;;;;;;;;;;;;;;;;;5060433;28;1989;-55
2021/07/06 13:00:34;;;;;;;;;;;;;;;;;;5058782;28;1380;-54
2021/07/06 13:03:03;;;;;;;;;;;;;;;;;;5062601;28;1642;-55
2021/07/06 13:05:30;;;;;;;;;;;;;;;;;;5056598;28;1493;-56
2021/07/06 13:07:56;;;;;;;;;;;;;;;;;;5092926;22;1941;-96
2021/07/06 13:10:31;;;;;;;;;;;;;;;;;;5110369;28;1084;-95
2021/07/06 13:12:56;;;;;;;;;;;;;;;;;;5110546;28;1191;-95
2021/07/06 13:15:25;;;;;;;;;;;;;;;;;;5113548;28;1563;-95
2021/07/06 13:17:50;;;;;;;;;;;;;;;;;;5092067;28;1954;-96
2021/07/06 13:20:16;;;;;;;;;;;;;;;;;;5113072;28;1676;-95
2021/07/06 13:22:42;;;;;;;;;;;;;;;;;;5090179;28;1355;-96
2021/07/06 13:25:07;;;;;;;;;;;;;;;;;;5115074;28;1239;-95
2021/07/06 13:27:33;;;;;;;;;;;;;;;;;;5095909;28;1668;-94
2021/07/06 13:30:02;;;;;;;;;;;;;;;;;;5114816;28;1231;-95
2021/07/06 13:32:28;;;;;;;;;;;;;;;;;;5113023;28;1177;-95
2021/07/06 13:34:53;;;;;;;;;;;;;;;;;;5115654;28;1335;-95
2021/07/06 13:37:18;;;;;;;;;;;;;;;;;;5115815;28;1887;-95
2021/07/06 13:39:44;;;;;;;;;;;;;;;;;;5094737;28;1259;-96
2021/07/06 13:42:10;;;;;;;;;;;;;;;;;;5113982;28;1192;-95
2021/07/06 13:44:37;;;;;;;;;;;;;;;;;;5111491;28;1537;-95
2021/07/06 13:47:03;;;;;;;;;;;;;;;;;;5111927;28;1316;-95
2021/07/06 13:49:28;;;;;;;;;;;;;;;;;;5093216;28;1534;-96
2021/07/06 13:51:58;;;;;;;;;;;;;;;;;;5110859;28;1366;-96
2021/07/06 13:54:24;;;;;;;;;;;;;;;;;;5111831;28;1159;-95
2021/07/06 13:56:49;;;;;;;;;;;;;;;;;;5114704;28;1954;-95
2021/07/06 13:59:15;;;;;;;;;;;;;;;;;;5095077;28;1520;-96
2021/07/06 14:01:40;;;;;;;;;;;;;;;;;;5112988;28;1064;-96
2021/07/06 14:04:05;;;;;;;;;;;;;;;;;;5096486;28;1377;-95
2021/07/06 14:06:30;;;;;;;;;;;;;;;;;;5111917;28;1462;-95
2021/07/06 14:08:56;;;;;;;;;;;;;;;;;;5092706;28;1252;-96
2021/07/06 14:11:21;;;;;;;;;;;;;;;;;;5075758;28;1410;-95
2021/07/06 14:13:46;;;;;;;;;;;;;;;;;;5097437;28;1149;-96
2021/07/06 14:16:11;;;;;;;;;;;;;;;;;;5112853;28;1572;-95
2021/07/06 14:18:36;;;;;;;;;;;;;;;;;;5111717;28;1949;-95
2021/07/06 14:21:02;;;;;;;;;;;;;;;;;;5091196;28;1160;-95
2021/07/06 14:23:27;;;;;;;;;;;;;;;;;;5113485;28;1113;-95
2021/07/06 14:25:52;;;;;;;;;;;;;;;;;;5114923;28;1065;-95
2021/07/06 14:28:17;;;;;;;;;;;;;;;;;;5113150;28;1422;-96
2021/07/06 14:30:43;;;;;;;;;;;;;;;;;;5113967;28;1167;-95
2021/07/06 14:33:08;;;;;;;;;;;;;;;;;;5109823;28;1438;-95
2021/07/06 14:35:33;;;;;;;;;;;;;;;;;;5094007;28;1137;-96
2021/07/06 14:37:58;;;;;;;;;;;;;;;;;;5111465;28;1945;-95
2021/07/06 14:40:24;;;;;;;;;;;;;;;;;;5115051;28;1257;-95
2021/07/06 14:42:49;;;;;;;;;;;;;;;;;;5095793;28;1719;-95
2021/07/06 14:45:14;;;;;;;;;;;;;;;;;;5096372;28;2080;-95
2021/07/06 14:47:39;;;;;;;;;;;;;;;;;;5110197;28;1342;-95
2021/07/06 14:50:05;;;;;;;;;;;;;;;;;;5114024;28;1509;-95
2021/07/06 14:52:31;;;;;;;;;;;;;;;;;;5112561;28;1313;-96
2021/07/06 14:54:56;;;;;;;;;;;;;;;;;;5116922;28;1144;-95
2021/07/06 14:57:26;;;;;;;;;;;;;;;;;;5114807;28;1874;-95
2021/07/06 14:59:51;;;;;;;;;;;;;;;;;;5117155;28;1073;-95
2021/07/06 15:02:16;;;;;;;;;;;;;;;;;;5114126;28;1208;-95
2021/07/06 15:04:41;;;;;;;;;;;;;;;;;;5117467;28;1608;-95
2021/07/06 15:07:07;;;;;;;;;;;;;;;;;;5113812;28;1493;-95
2021/07/06 15:09:32;;;;;;;;;;;;;;;;;;5115544;28;1189;-95
2021/07/06 15:11:57;;;;;;;;;;;;;;;;;;5094363;28;1428;-95
2021/07/06 15:14:22;;;;;;;;;;;;;;;;;;5112338;28;1533;-95
2021/07/06 15:16:47;;;;;;;;;;;;;;;;;;5113453;28;1499;-94
2021/07/06 15:19:12;;;;;;;;;;;;;;;;;;5114444;28;1882;-96
2021/07/06 15:21:38;;;;;;;;;;;;;;;;;;5115170;28;1188;-94
2021/07/06 15:24:03;;;;;;;;;;;;;;;;;;5098138;28;1184;-96
2021/07/06 15:26:28;;;;;;;;;;;;;;;;;;5097628;28;1319;-95
2021/07/06 15:28:54;;;;;;;;;;;;;;;;;;5114557;28;1493;-95
2021/07/06 15:31:19;;;;;;;;;;;;;;;;;;5115373;28;1204;-95
2021/07/06 15:33:44;;;;;;;;;;;;;;;;;;5080787;28;1433;-95
2021/07/06 15:36:09;;;;;;;;;;;;;;;;;;5116867;28;1301;-95
2021/07/06 15:38:37;;;;;;;;;;;;;;;;;;5117853;28;1887;-95
2021/07/06 15:41:04;;;;;;;;;;;;;;;;;;5079653;28;1503;-96
2021/07/06 15:43:29;;;;;;;;;;;;;;;;;;5097150;28;1783;-94
2021/07/06 15:45:54;;;;;;;;;;;;;;;;;;5089124;28;1480;-94
2021/07/06 15:48:19;;;;;;;;;;;;;;;;;;5071406;28;1578;-94
2021/07/06 15:50:44;;;;;;;;;;;;;;;;;;5070554;28;1372;-94
2021/07/06 15:53:10;;;;;;;;;;;;;;;;;;5089217;28;1482;-94
2021/07/06 15:55:35;;;;;;;;;;;;;;;;;;5097924;28;1426;-94
2021/07/06 15:58:00;;;;;;;;;;;;;;;;;;5090996;28;1965;-94
2021/07/06 16:00:25;;;;;;;;;;;;;;;;;;5093469;28;1636;-93
2021/07/06 16:02:51;;;;;;;;;;;;;;;;;;5073532;28;1558;-93
2021/07/06 16:05:16;;;;;;;;;;;;;;;;;;5072775;28;1737;-93
2021/07/06 16:07:41;;;;;;;;;;;;;;;;;;5093861;28;1736;-94
2021/07/06 16:10:07;;;;;;;;;;;;;;;;;;5091516;28;1544;-93
2021/07/06 16:12:32;;;;;;;;;;;;;;;;;;5077920;28;1186;-93
2021/07/06 16:14:57;;;;;;;;;;;;;;;;;;5094978;28;1250;-92
2021/07/06 16:17:23;;;;;;;;;;;;;;;;;;5090868;28;1922;-93
2021/07/06 16:19:48;;;;;;;;;;;;;;;;;;5094249;28;1573;-93
2021/07/06 16:22:13;;;;;;;;;;;;;;;;;;5093049;28;1581;-92
2021/07/06 16:24:38;;;;;;;;;;;;;;;;;;5090588;28;1488;-93
2021/07/06 16:27:04;;;;;;;;;;;;;;;;;;5093603;28;1309;-92
2021/07/06 16:29:29;;;;;;;;;;;;;;;;;;5094579;28;1128;-92
2021/07/06 16:31:54;;;;;;;;;;;;;;;;;;5093068;28;1603;-94
2021/07/06 16:34:20;;;;;;;;;;;;;;;;;;5089649;28;1600;-93
2021/07/06 16:36:45;;;;;;;;;;;;;;;;;;5074026;28;1490;-94
2021/07/06 16:39:10;;;;;;;;;;;;;;;;;;5092284;28;1918;-92
2021/07/06 16:41:36;;;;;;;;;;;;;;;;;;5068569;28;1180;-92
2021/07/06 16:44:01;;;;;;;;;;;;;;;;;;5068769;28;1558;-93
2021/07/06 16:46:26;;;;;;;;;;;;;;;;;;5089224;28;1330;-93
2021/07/06 16:48:51;;;;;;;;;;;;;;;;;;5090725;28;1573;-94
2021/07/06 17:59:37;;;;;;;;;;;;;;;;;;5004365;28;1558;-94
2021/07/06 18:04:46;;;;;;;;;;;;;;;;;;5006831;28;1737;-93
2021/07/06 18:07:11;;;;;;;;;;;;;;;;;;5061988;28;1613;-93